KCLE/CLE METAR and TAF weather

Enter ICAO airport designator
Station Type Date Time Source
KCLE METAR 2018/09/20 18:17 UTC NOAA

KCLE 201817Z 03008KT 10SM -TSRA SCT039 BKN049CB BKN060 BKN250 24/21 A3009 RMK AO2 RAB16 TSB14 OCNL LTGICCCCG E AND W TS E AND W MOV E P0000 T02440206 $


Station Type Date Time Source
KCLE Decoded METAR 2018/09/20 18:17 UTC NOAA

CLEVELAND-HOPKINS INTERNATIONAL , OH, United States (KCLE) 41-24N 081-51W 236M
Sep 20, 2018 - 02:17 PM EDT / 2018.09.20 1817 UTC
Wind: from the NNE (030 degrees) at 9 MPH (8 KT):0
Visibility: 10 mile(s):0
Sky conditions: mostly cloudy
Weather: light rain with thunder; Cumulonimbus clouds, lightning observed
Precipitation last hour: A trace
Temperature: 75.9 F (24.4 C)
Dew Point: 69.1 F (20.6 C)
Relative Humidity: 79%
Pressure (altimeter): 30.09 in. Hg (1018 hPa)
ob: KCLE 201817Z 03008KT 10SM -TSRA SCT039 BKN049CB BKN060 BKN250 24/21 A3009 RMK AO2 RAB16 TSB14 OCNL LTGICCCCG E AND W TS E AND W MOV E P0000 T02440206
cycle: 18

Station Type Date Time Source
KCLE TAF 2018/09/20 18:51 UTC NOAA

TAF
AMD KCLE 201748Z 2018/2124 02010G20KT 3SM TSRA BKN030CB
FM202000 02010KT P6SM BKN040
FM202300 22014KT P6SM BKN100
FM211400 22012G20KT P6SM SCT045
FM211800 24015G25KT P6SM BKN040


Example: see airport list